Terminal Aerodrome Forecast
Issued by NWS

Home | Current Version | Previous Version | Text Only | Print | Product List | Glossary On
Versions: 1 2 3 4 5 6 7 8 9 10 11 12 13 14 15 16
000
FTPQ31 PGUM 302334
TAFGUM
TAF

TAF
PGWT 302334Z 0100/0124 08014KT P6SM FEW015 SCT040
     FM010800 08010KT P6SM VCSH FEW020 SCT040=

USA.gov is the U.S. government's official web portal to all federal, state and local government web resources and services.